Time;durP1;ratioP1;P1;durP2;ratioP2;P2;SDS_P1;SDS_P2;PMS_P1;PMS_P2;Temp;Humidity;BMP_temperature;BMP_pressure;BME280_temperature;BME280_humidity;BME280_pressure;Samples;Min_cycle;Max_cycle;Signal;HPM_P1;HPM_P2
2022/07/13 00:00:26;;;;;;;7.17;2.45;;;;;;;16.54;74.42;101126.78;1676004;85;21128;-88
2022/07/13 00:02:55;;;;;;;4.00;2.00;;;;;;;16.50;74.35;101117.45;1683657;83;21057;-88
2022/07/13 00:05:22;;;;;;;6.72;2.22;;;;;;;16.49;74.29;101124.07;1686184;84;21112;-89
2022/07/13 00:07:48;;;;;;;8.78;2.10;;;;;;;16.47;74.42;101128.04;1679689;85;21113;-90
2022/07/13 00:10:15;;;;;;;6.00;2.10;;;;;;;16.47;74.51;101122.73;1686605;84;21138;-89
2022/07/13 00:12:42;;;;;;;3.50;1.82;;;;;;;16.48;74.53;101124.52;1681118;84;21563;-89
2022/07/13 00:15:10;;;;;;;7.35;1.87;;;;;;;16.48;74.67;101128.50;1683051;83;22393;-89
2022/07/13 00:17:36;;;;;;;5.33;2.02;;;;;;;16.48;74.57;101136.48;1667227;85;21647;-90
2022/07/13 00:20:04;;;;;;;4.50;1.80;;;;;;;16.49;74.64;101133.37;1702010;83;21021;-88
2022/07/13 00:22:31;;;;;;;6.65;2.10;;;;;;;16.45;74.62;101128.47;1689233;83;21048;-88
2022/07/13 00:24:58;;;;;;;6.65;1.90;;;;;;;16.47;74.62;101132.47;1678353;85;21096;-89
2022/07/13 00:27:26;;;;;;;3.37;1.90;;;;;;;16.48;74.98;101130.28;1678655;83;21744;-91
2022/07/13 00:29:53;;;;;;;5.78;2.10;;;;;;;16.49;74.77;101127.61;1677275;84;21027;-89
2022/07/13 00:32:20;;;;;;;5.58;2.02;;;;;;;16.48;74.73;101123.19;1683178;83;21121;-89
2022/07/13 00:34:47;;;;;;;4.97;2.00;;;;;;;16.48;74.88;101124.97;1685579;83;21248;-88
2022/07/13 00:37:14;;;;;;;4.25;2.20;;;;;;;16.48;74.89;101128.50;1679832;83;21131;-88
2022/07/13 00:39:41;;;;;;;6.10;2.10;;;;;;;16.43;74.93;101118.27;1685268;83;22609;-88
2022/07/13 00:42:07;;;;;;;4.78;2.00;;;;;;;16.47;74.98;101123.17;1688015;84;21074;-89
2022/07/13 00:44:34;;;;;;;5.62;2.17;;;;;;;16.46;75.19;101129.35;1698922;83;21100;-89
2022/07/13 00:47:01;;;;;;;7.05;2.45;;;;;;;16.46;75.16;101123.62;1695033;83;21077;-87
2022/07/13 00:49:28;;;;;;;4.10;1.75;;;;;;;16.47;75.29;101111.22;1696811;83;21137;-90
2022/07/13 00:51:57;;;;;;;7.08;2.10;;;;;;;16.46;75.33;101112.08;1711476;83;21837;-88
2022/07/13 00:54:28;;;;;;;8.18;1.77;;;;;;;16.46;75.34;101112.99;1701586;83;21139;-89
2022/07/13 00:56:53;;;;;;;3.08;1.72;;;;;;;16.39;75.44;101100.54;1692192;84;21038;-88
2022/07/13 00:59:20;;;;;;;4.12;1.60;;;;;;;16.43;75.38;101115.62;1692853;83;21643;-90
2022/07/13 01:01:47;;;;;;;4.80;1.70;;;;;;;16.33;75.38;101094.75;1679352;83;21136;-88
2022/07/13 01:04:13;;;;;;;3.42;1.70;;;;;;;16.39;75.50;101108.52;1678483;84;21759;-90
2022/07/13 01:06:40;;;;;;;6.37;1.70;;;;;;;16.37;75.56;101096.08;1680059;84;21950;-90
2022/07/13 01:09:07;;;;;;;5.53;2.20;;;;;;;16.36;75.67;101108.48;1693727;84;21022;-88
2022/07/13 01:11:34;;;;;;;7.83;1.98;;;;;;;16.35;75.69;101106.72;1680328;84;21359;-90
2022/07/13 01:14:05;;;;;;;6.37;2.05;;;;;;;16.33;75.80;101097.85;1680680;84;21272;-87
2022/07/13 01:16:31;;;;;;;7.50;1.72;;;;;;;16.32;75.82;101100.05;1680828;83;21282;-88
2022/07/13 01:18:58;;;;;;;6.35;2.00;;;;;;;16.30;75.84;101099.15;1692408;84;21541;-88
2022/07/13 01:21:25;;;;;;;5.78;1.90;;;;;;;16.27;75.95;101098.70;1679833;84;21199;-87
2022/07/13 01:23:52;;;;;;;8.18;1.72;;;;;;;16.26;76.17;101096.02;1684305;83;21328;-88
2022/07/13 01:26:18;;;;;;;4.87;1.67;;;;;;;16.25;76.07;101095.56;1680191;84;21125;-90
2022/07/13 01:28:45;;;;;;;6.28;2.20;;;;;;;16.23;76.15;101092.89;1681044;85;21150;-87
2022/07/13 01:31:12;;;;;;;6.75;1.75;;;;;;;16.20;76.27;101091.97;1687802;84;21489;-87
2022/07/13 01:33:39;;;;;;;6.75;1.72;;;;;;;16.18;76.29;101095.97;1675237;84;21054;-90
2022/07/13 01:36:07;;;;;;;7.62;1.82;;;;;;;16.18;76.52;101091.08;1679873;83;21083;-90
2022/07/13 01:38:33;;;;;;;7.40;1.98;;;;;;;16.18;76.51;101091.08;1678246;84;21097;-87
2022/07/13 01:41:00;;;;;;;5.60;1.70;;;;;;;16.15;76.67;101091.08;1692184;84;21748;-87
2022/07/13 01:43:29;;;;;;;7.62;2.95;;;;;;;16.16;76.57;101096.82;1680061;84;21584;-87
2022/07/13 01:45:55;;;;;;;7.55;2.22;;;;;;;16.12;76.69;101094.58;1688127;84;21621;-88
2022/07/13 01:48:22;;;;;;;5.60;1.87;;;;;;;16.11;76.77;101091.04;1690467;84;21062;-87
2022/07/13 01:50:49;;;;;;;7.10;2.05;;;;;;;16.11;76.85;101095.02;1691402;84;21101;-87
2022/07/13 01:53:16;;;;;;;5.72;2.10;;;;;;;16.10;76.95;101091.94;1682452;84;22533;-89
2022/07/13 01:55:47;;;;;;;8.10;2.50;;;;;;;16.10;77.08;101090.61;1693391;84;21659;-90
2022/07/13 01:58:14;;;;;;;9.25;2.02;;;;;;;16.11;77.19;101097.67;1647891;86;21080;-89
2022/07/13 02:00:41;;;;;;;5.35;1.90;;;;;;;16.12;77.18;101091.50;1672753;85;21093;-87
2022/07/13 02:03:07;;;;;;;4.28;1.95;;;;;;;16.12;77.35;101093.25;1701930;83;21332;-90
2022/07/13 02:05:43;;;;;;;11.15;2.33;;;;;;;16.12;77.34;101096.81;1694930;84;21759;-89
2022/07/13 02:08:10;;;;;;;4.95;1.80;;;;;;;16.12;77.29;101091.50;1680467;84;21039;-89
2022/07/13 02:10:37;;;;;;;4.55;2.20;;;;;;;16.12;77.42;101091.92;1707543;83;21074;-89
2022/07/13 02:13:04;;;;;;;4.65;1.87;;;;;;;16.12;77.39;101091.50;1688950;83;21030;-87
2022/07/13 02:15:31;;;;;;;4.08;1.92;;;;;;;16.10;77.34;101076.41;1680137;83;21105;-89
2022/07/13 02:18:00;;;;;;;7.42;1.92;;;;;;;16.09;77.33;101076.86;1678775;83;21699;-90
2022/07/13 02:20:26;;;;;;;5.58;1.85;;;;;;;16.07;77.42;101073.31;1677205;83;21078;-89
2022/07/13 02:22:53;;;;;;;6.83;2.00;;;;;;;16.08;77.57;101085.69;1678277;84;21066;-88
2022/07/13 02:25:29;;;;;;;3.62;1.70;;;;;;;16.07;77.51;101075.97;1680272;84;21258;-90
2022/07/13 02:27:56;;;;;;;5.85;1.90;;;;;;;16.07;77.53;101079.06;1652416;84;21110;-89
2022/07/13 02:30:23;;;;;;;4.62;1.87;;;;;;;16.06;77.72;101072.84;1704211;83;21788;-88
2022/07/13 02:32:50;;;;;;;4.03;1.87;;;;;;;16.07;77.79;101077.30;1680739;83;21188;-90
2022/07/13 02:35:17;;;;;;;5.50;1.80;;;;;;;16.09;77.76;101074.66;1677155;83;21046;-87
2022/07/13 02:37:44;;;;;;;6.37;1.82;;;;;;;16.09;77.79;101065.36;1685883;83;21540;-90
2022/07/13 02:40:12;;;;;;;5.10;1.77;;;;;;;16.10;77.75;101072.02;1699676;82;21046;-90
2022/07/13 02:42:39;;;;;;;7.45;1.95;;;;;;;16.11;77.88;101065.81;1682232;84;21781;-89
2022/07/13 02:45:07;;;;;;;8.95;2.10;;;;;;;16.12;77.76;101056.98;1690627;83;21308;-87
2022/07/13 02:47:34;;;;;;;6.35;2.00;;;;;;;16.13;77.85;101057.41;1677137;83;21078;-89
2022/07/13 02:50:01;;;;;;;5.42;1.92;;;;;;;16.15;77.83;101052.12;1682646;84;21090;-88
2022/07/13 02:52:28;;;;;;;6.40;1.92;;;;;;;16.18;77.92;101057.47;1682751;84;21077;-90
2022/07/13 02:54:55;;;;;;;4.35;1.92;;;;;;;16.21;77.89;101056.13;1692452;83;22607;-88
2022/07/13 02:57:22;;;;;;;3.77;1.70;;;;;;;16.23;77.81;101054.83;1690763;84;21074;-89
2022/07/13 02:59:49;;;;;;;6.00;1.87;;;;;;;16.25;77.87;101052.61;1707984;83;21117;-89
2022/07/13 03:02:21;;;;;;;4.78;1.90;;;;;;;16.29;77.96;101054.85;1699331;83;21082;-89
2022/07/13 03:04:48;;;;;;;4.35;1.67;;;;;;;16.33;77.99;101058.00;1693095;84;21094;-89
2022/07/13 03:07:15;;;;;;;8.10;2.85;;;;;;;16.37;77.84;101058.88;1681383;83;22604;-88
2022/07/13 03:09:42;;;;;;;7.78;2.15;;;;;;;16.40;77.92;101050.94;1680159;84;21572;-87
2022/07/13 03:12:09;;;;;;;7.53;3.35;;;;;;;16.46;77.90;101049.22;1680911;83;21106;-88
2022/07/13 03:14:36;;;;;;;4.90;1.90;;;;;;;16.50;77.79;101043.48;1690084;84;21066;-89
2022/07/13 03:17:02;;;;;;;6.83;2.35;;;;;;;16.56;77.65;101039.53;1681490;83;21018;-90
2022/07/13 03:19:29;;;;;;;6.62;2.77;;;;;;;16.62;77.72;101040.87;1699380;83;21690;-87
2022/07/13 03:21:57;;;;;;;4.83;2.40;;;;;;;16.69;77.62;101039.15;1699019;84;21038;-89
2022/07/13 03:24:23;;;;;;;10.10;3.35;;;;;;;16.75;77.48;101044.48;1696163;83;21063;-89
2022/07/13 03:26:50;;;;;;;5.45;2.30;;;;;;;16.83;77.42;101042.77;1690232;83;21083;-87
2022/07/13 03:29:17;;;;;;;7.20;2.52;;;;;;;16.93;77.30;101044.13;1683434;84;21075;-88
2022/07/13 03:31:44;;;;;;;4.40;1.90;;;;;;;17.00;77.23;101043.28;1691765;84;22404;-87
2022/07/13 03:34:11;;;;;;;3.62;1.98;;;;;;;17.19;77.22;101046.87;1697789;83;21055;-89
2022/07/13 03:36:38;;;;;;;5.45;2.15;;;;;;;17.84;78.56;101047.42;1673354;83;21134;-88
2022/07/13 03:39:04;;;;;;;3.65;1.62;;;;;;;19.46;79.46;101046.00;1686611;83;21186;-89
2022/07/13 03:41:31;;;;;;;5.95;1.70;;;;;;;21.28;77.84;101038.32;1692475;84;22226;-88
2022/07/13 03:43:58;;;;;;;6.40;1.67;;;;;;;22.82;75.15;101044.56;1684750;84;22579;-90
2022/07/13 03:46:25;;;;;;;4.25;1.70;;;;;;;24.00;72.86;101022.14;1691708;84;21762;-88
2022/07/13 03:48:52;;;;;;;5.05;1.95;;;;;;;24.78;69.16;101033.04;1690795;84;21125;-88
2022/07/13 03:51:23;;;;;;;5.03;2.17;;;;;;;24.81;66.41;101028.89;1693720;84;21071;-90
2022/07/13 03:53:49;;;;;;;4.22;2.40;;;;;;;25.39;66.66;101043.75;1694750;84;21078;-87
2022/07/13 03:56:16;;;;;;;3.33;1.72;;;;;;;26.47;64.89;101036.07;1688378;84;21765;-88
2022/07/13 03:58:43;;;;;;;5.40;2.00;;;;;;;27.32;62.79;101033.28;1685776;84;21040;-88
2022/07/13 04:01:10;;;;;;;2.52;1.62;;;;;;;27.97;60.19;101029.28;1692416;84;21611;-87
2022/07/13 04:03:40;;;;;;;2.95;1.90;;;;;;;28.64;59.25;101033.55;1694481;83;21062;-90
2022/07/13 04:06:06;;;;;;;6.37;2.20;;;;;;;29.39;57.94;101034.52;1695317;83;21095;-90
2022/07/13 04:08:35;;;;;;;3.30;1.50;;;;;;;30.20;56.01;101035.43;1689622;84;21802;-88
2022/07/13 04:11:02;;;;;;;4.28;1.57;;;;;;;30.91;54.17;101045.27;1692375;84;21557;-89
2022/07/13 04:13:29;;;;;;;5.25;2.00;;;;;;;31.43;51.93;101045.03;1683612;84;21070;-90
2022/07/13 04:15:55;;;;;;;2.62;1.62;;;;;;;31.83;51.34;101039.12;1671721;85;21682;-89
2022/07/13 04:18:22;;;;;;;5.45;1.62;;;;;;;32.41;50.18;101047.84;1683067;84;21086;-87
2022/07/13 04:20:50;;;;;;;2.90;1.98;;;;;;;32.89;48.69;101042.17;1680745;84;21730;-91
2022/07/13 04:23:29;;;;;;;4.08;1.80;;;;;;;33.15;46.03;101045.06;1653549;84;21074;-90
2022/07/13 04:25:57;;;;;;;5.10;1.80;;;;;;;33.24;45.81;101049.92;1690343;84;21048;-89
2022/07/13 04:28:27;;;;;;;3.00;1.62;;;;;;;33.66;45.42;101046.23;1688936;84;21084;-87
2022/07/13 04:30:52;;;;;;;5.83;2.10;;;;;;;33.59;42.90;101057.63;1684113;84;21682;-89
2022/07/13 04:33:19;;;;;;;3.15;1.50;;;;;;;32.53;43.74;101059.36;1690265;83;21747;-89
2022/07/13 04:35:46;;;;;;;3.40;1.57;;;;;;;33.16;43.56;101051.79;1685581;84;21090;-92
2022/07/13 04:38:26;;;;;;;3.25;2.37;;;;;;;34.15;42.63;101053.41;1692987;84;21571;-93
2022/07/13 04:40:54;;;;;;;4.55;1.87;;;;;;;35.00;41.13;101056.51;1688327;84;21078;-92
2022/07/13 04:43:21;;;;;;;5.62;2.50;;;;;;;34.58;40.46;101051.27;1682702;84;21606;-89
2022/07/13 04:45:47;;;;;;;3.75;2.20;;;;;;;34.29;40.25;101049.23;1700522;84;21755;-89
2022/07/13 04:48:14;;;;;;;3.58;1.70;;;;;;;33.43;39.18;101055.94;1698763;84;21074;-88
2022/07/13 04:50:42;;;;;;;6.85;2.52;;;;;;;31.84;39.57;101057.22;1687695;83;21070;-88
2022/07/13 04:53:09;;;;;;;3.85;2.17;;;;;;;30.15;40.26;101058.77;1686206;84;21114;-90
2022/07/13 04:55:38;;;;;;;5.47;2.00;;;;;;;28.93;41.49;101062.46;1681708;83;21091;-89
2022/07/13 04:58:07;;;;;;;4.33;1.90;;;;;;;27.99;42.31;101053.09;1701051;84;21868;-91
2022/07/13 05:01:00;;;;;;;4.17;1.60;;;;;;;27.20;43.28;101067.98;1702201;84;21537;-91
2022/07/13 05:03:28;;;;;;;4.60;1.92;;;;;;;26.43;44.14;101064.99;1703313;84;21035;-88
2022/07/13 05:05:55;;;;;;;3.45;1.60;;;;;;;25.68;45.24;101061.69;1685853;84;21167;-90
2022/07/13 05:08:27;;;;;;;3.08;1.45;;;;;;;25.29;46.07;101070.59;1678236;85;21102;-91
2022/07/13 05:10:54;;;;;;;6.17;1.87;;;;;;;24.92;46.69;101066.27;1685859;84;21767;-89
2022/07/13 05:13:21;;;;;;;5.78;2.62;;;;;;;24.50;47.38;101053.98;1704623;84;21069;-91
2022/07/13 05:15:48;;;;;;;5.15;2.67;;;;;;;24.36;48.04;101073.64;1704497;83;21196;-88
2022/07/13 05:18:15;;;;;;;3.75;2.55;;;;;;;24.24;48.54;101077.56;1704372;84;21577;-88
2022/07/13 05:20:41;;;;;;;3.95;1.65;;;;;;;24.28;49.08;101079.23;1681635;83;21142;-91
2022/07/13 05:23:25;;;;;;;6.28;2.00;;;;;;;24.41;49.40;101075.76;1698946;83;21800;-91
2022/07/13 05:25:52;;;;;;;4.25;1.85;;;;;;;24.68;49.62;101084.02;1692836;82;21098;-88
2022/07/13 05:28:19;;;;;;;3.55;1.60;;;;;;;25.42;49.81;101085.44;1691373;84;21121;-90
2022/07/13 05:30:46;;;;;;;3.77;1.60;;;;;;;26.72;49.59;101094.99;1684160;83;21118;-91
2022/07/13 05:33:15;;;;;;;4.45;2.33;;;;;;;28.46;48.84;101081.73;1689286;84;21090;-89
2022/07/13 05:35:42;;;;;;;4.05;1.60;;;;;;;30.36;47.02;101087.14;1629074;86;21775;-91
2022/07/13 05:38:09;;;;;;;10.40;3.10;;;;;;;32.22;45.54;101090.33;1638832;85;21115;-91
2022/07/13 05:40:36;;;;;;;5.35;3.35;;;;;;;33.51;43.06;101086.30;1638766;87;21091;-92
2022/07/13 05:43:02;;;;;;;4.37;2.25;;;;;;;34.57;41.61;101082.31;1654194;86;21050;-91
2022/07/13 05:45:29;;;;;;;4.00;1.90;;;;;;;35.43;39.86;101083.47;1644861;86;21126;-89
2022/07/13 05:47:56;;;;;;;6.00;1.77;;;;;;;33.89;37.44;101083.38;1631094;87;21874;-89
2022/07/13 05:50:25;;;;;;;5.12;2.33;;;;;;;31.85;38.25;101077.52;1628332;87;21075;-92
2022/07/13 05:52:54;;;;;;;4.62;1.80;;;;;;;30.15;39.01;101083.20;1617560;87;21063;-91
2022/07/13 05:55:21;;;;;;;2.00;1.20;;;;;;;28.65;39.81;101081.34;1642519;87;21207;-92
2022/07/13 05:57:48;;;;;;;2.42;1.50;;;;;;;27.25;40.60;101092.56;1654651;85;21054;-89
2022/07/13 06:00:14;;;;;;;7.08;2.35;;;;;;;26.08;41.76;101083.30;1628584;87;21764;-89
2022/07/13 06:02:42;;;;;;;5.50;2.05;;;;;;;25.26;42.71;101085.48;1634629;85;21082;-91
2022/07/13 06:05:11;;;;;;;5.65;1.40;;;;;;;24.60;43.88;101084.23;1640154;86;21629;-91
2022/07/13 06:07:37;;;;;;;14.28;1.92;;;;;;;24.20;44.76;101082.61;1653012;85;21097;-91
2022/07/13 06:10:07;;;;;;;4.87;1.67;;;;;;;23.86;45.37;101071.37;1626899;87;21067;-89
2022/07/13 06:12:34;;;;;;;4.83;1.30;;;;;;;23.61;45.76;101075.06;1633414;87;21786;-90
2022/07/13 06:15:11;;;;;;;2.67;1.20;;;;;;;23.31;46.19;101081.57;1642743;86;21126;-92
2022/07/13 06:17:38;;;;;;;2.92;1.15;;;;;;;23.14;46.87;101080.61;1646515;85;21776;-90
2022/07/13 06:20:08;;;;;;;3.62;1.20;;;;;;;23.05;47.18;101091.11;1638710;87;21095;-92
2022/07/13 06:22:35;;;;;;;6.62;1.72;;;;;;;22.93;47.31;101087.76;1631452;86;21143;-89
2022/07/13 06:25:03;;;;;;;2.20;1.17;;;;;;;22.74;47.94;101083.23;1632968;86;22945;-88
2022/07/13 06:27:30;;;;;;;3.25;1.30;;;;;;;22.63;48.13;101084.31;1637750;87;21136;-89
2022/07/13 06:29:57;;;;;;;2.92;1.02;;;;;;;22.60;48.46;101087.50;1641162;87;21139;-89
2022/07/13 06:32:28;;;;;;;2.87;1.42;;;;;;;22.59;48.68;101106.75;1643014;85;21211;-92
2022/07/13 06:34:55;;;;;;;4.72;2.02;;;;;;;22.58;48.75;101102.31;1641085;87;21090;-90
2022/07/13 06:37:35;;;;;;;3.25;1.47;;;;;;;22.61;49.11;101105.39;1639739;87;21759;-91
2022/07/13 06:40:03;;;;;;;2.42;1.30;;;;;;;22.66;48.73;101107.53;1627931;86;21683;-89
2022/07/13 06:42:30;;;;;;;4.75;1.57;;;;;;;22.67;48.81;101116.91;1597063;88;21069;-91
2022/07/13 06:44:57;;;;;;;2.80;1.75;;;;;;;22.69;48.62;101100.31;1601850;89;21563;-89
2022/07/13 06:47:25;;;;;;;4.37;2.10;;;;;;;22.71;48.47;101110.98;1653077;86;21678;-90
2022/07/13 06:49:52;;;;;;;4.47;1.65;;;;;;;22.73;48.59;101111.87;1645538;86;21864;-88
2022/07/13 06:52:18;;;;;;;4.67;1.30;;;;;;;22.76;48.58;101109.58;1633804;86;21058;-88
2022/07/13 06:54:45;;;;;;;4.92;1.67;;;;;;;22.84;48.70;101107.61;1650593;86;21087;-88
2022/07/13 06:57:12;;;;;;;1.55;1.15;;;;;;;22.91;48.93;101106.58;1649461;85;21685;-90
2022/07/13 06:59:39;;;;;;;3.58;1.32;;;;;;;23.00;49.01;101114.44;1655573;86;21118;-88
2022/07/13 07:02:06;;;;;;;4.25;1.80;;;;;;;23.02;49.01;101114.41;1648095;85;21181;-87
2022/07/13 07:04:33;;;;;;;3.65;2.60;;;;;;;23.05;48.92;101113.93;1655164;85;21587;-90
2022/07/13 07:06:59;;;;;;;2.45;1.47;;;;;;;23.12;48.94;101120.50;1647922;86;21082;-89
2022/07/13 07:09:26;;;;;;;4.20;2.45;;;;;;;23.18;48.88;101120.36;1647803;86;21600;-91
2022/07/13 07:11:53;;;;;;;5.70;1.05;;;;;;;23.21;48.62;101118.97;1647307;84;21114;-89
2022/07/13 07:14:19;;;;;;;3.65;1.35;;;;;;;23.23;48.72;101141.30;1652339;86;21749;-89
2022/07/13 07:16:47;;;;;;;5.10;1.75;;;;;;;23.26;48.97;101126.47;1649780;84;21050;-88
2022/07/13 07:19:13;;;;;;;4.50;1.80;;;;;;;23.32;49.10;101130.83;1653546;86;21149;-89
2022/07/13 07:21:40;;;;;;;2.55;1.30;;;;;;;23.40;49.22;101130.19;1650288;85;21607;-89
2022/07/13 07:24:10;;;;;;;1.98;1.20;;;;;;;23.43;49.15;101120.73;1655850;85;21074;-90
2022/07/13 07:26:36;;;;;;;3.00;1.20;;;;;;;23.45;49.50;101114.39;1651648;84;21769;-90
2022/07/13 07:29:03;;;;;;;4.85;1.30;;;;;;;23.54;49.66;101120.46;1649262;86;21046;-88
2022/07/13 07:31:30;;;;;;;2.85;2.08;;;;;;;23.54;49.22;101117.34;1629327;87;21338;-90
2022/07/13 07:33:57;;;;;;;6.95;2.10;;;;;;;23.48;49.44;101116.11;1634395;87;21087;-89
2022/07/13 07:36:23;;;;;;;5.70;2.30;;;;;;;23.56;49.33;101115.50;1655082;86;21102;-87
2022/07/13 07:38:52;;;;;;;6.62;2.00;;;;;;;23.59;49.53;101112.72;1691683;83;21776;-88
2022/07/13 07:41:19;;;;;;;4.12;2.58;;;;;;;23.65;49.56;101119.78;1695555;84;21074;-88
2022/07/13 07:43:46;;;;;;;2.92;2.50;;;;;;;23.65;49.19;101111.25;1689323;84;22110;-89
2022/07/13 07:46:14;;;;;;;5.17;1.52;;;;;;;23.61;49.18;101107.31;1694043;84;21078;-89
2022/07/13 07:48:40;;;;;;;2.20;1.42;;;;;;;23.61;49.17;101110.91;1693584;84;21121;-89
2022/07/13 07:51:07;;;;;;;3.42;1.42;;;;;;;23.63;49.10;101109.50;1681479;83;21798;-90
2022/07/13 07:53:36;;;;;;;2.27;1.65;;;;;;;23.67;49.05;101101.81;1671802;84;38801;-90
2022/07/13 07:56:03;;;;;;;7.17;1.60;;;;;;;23.83;49.21;101096.97;1695662;84;21055;-90
2022/07/13 07:58:30;;;;;;;4.85;1.42;;;;;;;24.01;49.13;101103.71;1691419;84;21078;-90
2022/07/13 08:00:56;;;;;;;2.80;1.50;;;;;;;24.21;48.74;101108.56;1678769;84;21117;-89
2022/07/13 08:03:23;;;;;;;1.80;1.00;;;;;;;24.31;48.23;101075.13;1691645;83;21711;-87
2022/07/13 08:05:52;;;;;;;4.20;1.67;;;;;;;24.66;47.73;101102.89;1676964;84;21038;-90
2022/07/13 08:08:19;;;;;;;2.12;1.50;;;;;;;24.93;47.54;101105.28;1692436;84;21600;-89
2022/07/13 08:10:45;;;;;;;1.32;1.22;;;;;;;25.22;47.12;101108.44;1687363;84;21151;-89
2022/07/13 08:13:12;;;;;;;2.95;0.88;;;;;;;25.59;46.56;101122.64;1685581;84;21322;-88
2022/07/13 08:15:39;;;;;;;2.10;1.30;;;;;;;25.84;46.49;101109.23;1693889;84;21824;-88
2022/07/13 08:18:06;;;;;;;2.42;1.10;;;;;;;26.14;45.69;101120.84;1691328;84;21606;-87
2022/07/13 08:20:33;;;;;;;5.25;0.72;;;;;;;26.34;45.59;101109.38;1689076;84;21043;-88
2022/07/13 08:22:59;;;;;;;3.08;1.05;;;;;;;26.54;44.81;101111.37;1690171;83;21175;-88
2022/07/13 08:29:19;;;;;;;3.27;0.95;;;;;;;26.93;44.85;101098.73;1692332;84;21985;-90
2022/07/13 08:32:12;;;;;;;2.37;1.35;;;;;;;27.34;44.24;101095.39;1692904;84;21082;-91
2022/07/13 08:40:10;;;;;;;3.92;2.67;;;;;;;27.64;43.38;101100.52;1685060;84;21804;-89
2022/07/13 08:42:39;;;;;;;4.20;1.32;;;;;;;27.62;43.58;101110.03;1642975;86;22588;-89
2022/07/13 08:45:07;;;;;;;1.62;1.30;;;;;;;27.66;43.54;101108.09;1628668;86;21595;-88
2022/07/13 08:47:33;;;;;;;6.85;1.62;;;;;;;27.62;43.52;101115.45;1642423;86;21098;-88
2022/07/13 08:50:06;;;;;;;4.17;1.40;;;;;;;27.48;43.60;101117.81;1598668;87;21241;-88
2022/07/13 08:52:35;;;;;;;1.60;1.17;;;;;;;27.42;43.71;101111.30;1618901;86;21112;-88
2022/07/13 08:55:05;;;;;;;4.70;2.20;;;;;;;27.34;43.88;101118.37;1644918;87;22579;-90
2022/07/13 08:57:34;;;;;;;2.22;1.20;;;;;;;27.22;43.77;101116.13;1641698;86;21089;-88
2022/07/13 09:00:04;;;;;;;4.85;1.47;;;;;;;27.18;43.93;101118.51;1651129;86;21121;-89
2022/07/13 09:02:31;;;;;;;1.22;0.95;;;;;;;27.12;43.62;101123.67;1653580;85;21125;-89
2022/07/13 09:04:58;;;;;;;1.72;1.40;;;;;;;26.95;43.72;101112.16;1692128;83;21602;-90
2022/07/13 09:07:25;;;;;;;3.77;1.65;;;;;;;26.83;43.92;101120.73;1694836;83;21964;-89
2022/07/13 09:09:56;;;;;;;3.25;1.00;;;;;;;26.82;44.16;101123.02;1692986;84;21055;-88
2022/07/13 09:12:26;;;;;;;2.08;1.25;;;;;;;26.82;44.23;101130.64;1694401;84;21086;-88
2022/07/13 09:14:56;;;;;;;2.25;1.40;;;;;;;26.87;44.40;101125.95;1694214;83;21149;-89
2022/07/13 09:17:44;;;;;;;3.62;1.50;;;;;;;26.83;44.03;101126.14;1661371;84;21090;-89
2022/07/13 09:20:16;;;;;;;1.77;0.93;;;;;;;26.72;43.92;101120.64;1692146;84;21794;-88
2022/07/13 09:22:56;;;;;;;1.82;0.90;;;;;;;26.54;44.14;101111.82;1687309;84;21561;-88
2022/07/13 09:25:37;;;;;;;2.72;1.02;;;;;;;26.53;44.50;101106.03;1689064;84;21105;-90
2022/07/13 09:28:08;;;;;;;2.22;0.88;;;;;;;26.47;44.59;101105.78;1682602;84;21104;-89
2022/07/13 09:30:45;;;;;;;3.25;1.17;;;;;;;26.34;44.63;101094.53;1693328;83;21106;-89
2022/07/13 09:33:12;;;;;;;2.58;1.72;;;;;;;26.25;44.88;101096.67;1687197;84;21846;-88
2022/07/13 09:35:44;;;;;;;5.75;1.62;;;;;;;26.14;45.05;101101.09;1691521;84;21615;-89
2022/07/13 09:38:31;;;;;;;4.05;1.30;;;;;;;26.02;45.20;101096.12;1695760;84;21062;-88
2022/07/13 09:41:22;;;;;;;1.92;1.60;;;;;;;25.91;45.44;101095.09;1673291;84;21604;-88
2022/07/13 09:47:05;;;;;;;2.40;1.67;;;;;;;25.87;45.48;101101.05;1693057;84;22502;-88
2022/07/13 09:49:41;;;;;;;3.02;1.87;;;;;;;25.89;45.67;101106.41;1684343;84;21070;-87
2022/07/13 09:52:12;;;;;;;4.30;1.90;;;;;;;25.92;45.61;101100.92;1681978;84;21058;-88
2022/07/13 09:54:41;;;;;;;5.28;1.12;;;;;;;26.07;45.66;101096.83;1651192;85;21153;-89
2022/07/13 09:57:13;;;;;;;2.40;1.10;;;;;;;26.31;45.58;101095.98;1692734;84;21078;-87
2022/07/13 09:59:42;;;;;;;2.08;1.10;;;;;;;26.55;45.46;101098.27;1686844;84;21777;-87
2022/07/13 10:02:09;;;;;;;3.75;1.30;;;;;;;26.80;45.49;101100.11;1693726;83;21079;-89
2022/07/13 10:04:36;;;;;;;3.80;1.37;;;;;;;26.97;45.25;101096.77;1646015;84;21086;-89
2022/07/13 10:07:05;;;;;;;2.98;1.35;;;;;;;27.14;45.12;101090.27;1691616;84;21548;-88
2022/07/13 10:09:32;;;;;;;6.42;2.33;;;;;;;27.29;44.72;101086.58;1686323;84;21095;-89
2022/07/13 10:12:00;;;;;;;3.35;2.08;;;;;;;27.41;44.63;101092.86;1683772;84;22430;-89
2022/07/13 10:14:27;;;;;;;3.17;1.62;;;;;;;27.47;43.98;101084.97;1692747;84;21085;-92
2022/07/13 10:17:01;;;;;;;1.57;1.40;;;;;;;27.47;43.57;101082.27;1682215;84;21086;-88
2022/07/13 10:19:29;;;;;;;4.50;1.50;;;;;;;27.46;43.57;101073.73;1690286;84;21044;-89
2022/07/13 10:22:09;;;;;;;3.27;2.47;;;;;;;27.52;43.43;101062.22;1696161;84;21086;-89
2022/07/13 10:24:35;;;;;;;2.65;1.57;;;;;;;27.59;42.88;101066.92;1696524;83;21741;-89
2022/07/13 10:27:27;;;;;;;4.78;1.52;;;;;;;27.68;43.11;101055.69;1695624;84;21106;-89
2022/07/13 10:29:58;;;;;;;3.27;1.90;;;;;;;27.85;42.96;101061.74;1684684;84;21064;-89
2022/07/13 10:32:28;;;;;;;2.10;1.90;;;;;;;27.97;42.61;101059.05;1689915;84;21143;-90
2022/07/13 10:35:12;;;;;;;5.83;1.75;;;;;;;28.13;42.33;101052.97;1682067;84;21071;-87
2022/07/13 10:38:05;;;;;;;2.85;2.52;;;;;;;28.21;42.15;101053.50;1667545;84;21315;-88
2022/07/13 10:40:33;;;;;;;1.80;1.60;;;;;;;28.25;41.85;101049.25;1695529;84;21705;-88
2022/07/13 10:43:05;;;;;;;3.37;1.87;;;;;;;28.28;41.78;101057.22;1695093;83;21161;-88
2022/07/13 10:45:40;;;;;;;3.08;2.08;;;;;;;28.34;41.69;101052.48;1686445;84;21090;-87
2022/07/13 10:48:26;;;;;;;3.80;2.10;;;;;;;28.43;41.63;101050.24;1691482;84;21098;-88
2022/07/13 10:50:56;;;;;;;3.17;2.33;;;;;;;28.53;41.70;101056.18;1690741;83;21800;-89
2022/07/13 10:54:12;;;;;;;4.58;2.92;;;;;;;28.60;41.26;101063.05;1695896;83;21063;-88
2022/07/13 10:56:42;;;;;;;3.87;2.58;;;;;;;28.52;41.04;101055.77;1691713;84;21086;-89
2022/07/13 10:59:09;;;;;;;4.75;2.40;;;;;;;28.59;40.91;101052.31;1658858;84;21122;-90
2022/07/13 11:01:48;;;;;;;2.30;1.90;;;;;;;28.59;40.71;101044.19;1651878;86;21094;-90
2022/07/13 11:04:16;;;;;;;3.70;1.92;;;;;;;28.54;41.05;101051.16;1632288;87;21804;-89
2022/07/13 11:06:44;;;;;;;6.97;3.55;;;;;;;28.53;40.55;101059.34;1637451;87;21384;-89
2022/07/13 11:09:14;;;;;;;4.53;2.42;;;;;;;28.31;40.69;101050.81;1617568;86;21153;-89
2022/07/13 11:11:53;;;;;;;2.75;1.42;;;;;;;28.17;40.77;101054.59;1623394;87;21654;-88
2022/07/13 11:14:42;;;;;;;3.15;2.40;;;;;;;28.08;41.08;101047.73;1693476;83;21070;-87
2022/07/13 11:17:21;;;;;;;5.37;2.92;;;;;;;28.16;41.04;101050.14;1684776;83;21787;-88
2022/07/13 11:19:57;;;;;;;2.42;2.00;;;;;;;28.09;41.16;101048.16;1691568;84;21070;-89
2022/07/13 11:25:13;;;;;;;3.55;2.00;;;;;;;27.98;40.94;101045.03;1682936;84;21113;-89
2022/07/13 11:25:14;;;;;;;6.15;2.17;;;;;;;27.88;41.01;101043.17;1689575;84;21054;-87
2022/07/13 11:28:04;;;;;;;3.65;1.85;;;;;;;27.87;41.12;101039.59;1688821;84;21090;-87
2022/07/13 11:30:35;;;;;;;4.28;1.87;;;;;;;27.89;40.97;101039.53;1688395;83;21782;-88
2022/07/13 11:33:02;;;;;;;2.42;1.60;;;;;;;28.05;41.21;101037.06;1690720;83;21056;-87
2022/07/13 11:35:28;;;;;;;3.80;2.00;;;;;;;28.29;41.27;101035.11;1693154;84;21544;-87
2022/07/13 11:37:56;;;;;;;2.10;1.85;;;;;;;28.58;41.15;101037.00;1684554;84;21208;-88
2022/07/13 11:40:33;;;;;;;3.52;1.90;;;;;;;28.83;40.90;101037.64;1635896;84;21541;-88
2022/07/13 11:43:00;;;;;;;5.33;3.00;;;;;;;28.97;40.54;101037.45;1688181;84;21739;-88
2022/07/13 11:45:32;;;;;;;5.33;2.87;;;;;;;28.98;40.65;101033.78;1695204;84;21085;-87